sensor_id;sensor_type;location;lat;lon;timestamp;pressure;altitude;pressure_sealevel;temperature;humidity
46690;BME280;32423;45.398;10.874;2022-10-17T00:01:11;101886.66;;;14.52;87.07
46690;BME280;32423;45.398;10.874;2022-10-17T00:03:55;101885.97;;;14.46;87.11
46690;BME280;32423;45.398;10.874;2022-10-17T00:06:40;101896.63;;;14.34;87.64
46690;BME280;32423;45.398;10.874;2022-10-17T00:09:24;101896.06;;;14.37;87.78
46690;BME280;32423;45.398;10.874;2022-10-17T00:12:09;101895.50;;;14.35;88.04
46690;BME280;32423;45.398;10.874;2022-10-17T00:14:53;101891.06;;;14.39;87.51
46690;BME280;32423;45.398;10.874;2022-10-17T00:17:38;101885.47;;;14.44;86.95
46690;BME280;32423;45.398;10.874;2022-10-17T00:20:22;101898.25;;;14.35;87.57
46690;BME280;32423;45.398;10.874;2022-10-17T00:23:07;101898.81;;;14.24;88.66
46690;BME280;32423;45.398;10.874;2022-10-17T00:26:01;101903.78;;;14.22;88.43
46690;BME280;32423;45.398;10.874;2022-10-17T00:28:47;101909.06;;;14.18;88.86
46690;BME280;32423;45.398;10.874;2022-10-17T00:31:32;101911.25;;;14.30;88.02
46690;BME280;32423;45.398;10.874;2022-10-17T00:34:17;101910.25;;;14.26;88.48
46690;BME280;32423;45.398;10.874;2022-10-17T00:37:02;101908.44;;;14.21;88.38
46690;BME280;32423;45.398;10.874;2022-10-17T00:39:46;101913.41;;;14.19;88.91
46690;BME280;32423;45.398;10.874;2022-10-17T00:42:31;101912.00;;;14.22;89.08
46690;BME280;32423;45.398;10.874;2022-10-17T00:48:06;101913.94;;;14.21;88.85
46690;BME280;32423;45.398;10.874;2022-10-17T00:50:52;101909.44;;;14.25;88.24
46690;BME280;32423;45.398;10.874;2022-10-17T00:53:37;101911.06;;;14.26;88.29
46690;BME280;32423;45.398;10.874;2022-10-17T00:56:22;101909.44;;;14.25;88.01
46690;BME280;32423;45.398;10.874;2022-10-17T00:59:10;101915.34;;;14.19;88.01
46690;BME280;32423;45.398;10.874;2022-10-17T01:01:59;101915.88;;;14.07;88.99
46690;BME280;32423;45.398;10.874;2022-10-17T01:04:45;101915.16;;;14.15;88.44
46690;BME280;32423;45.398;10.874;2022-10-17T01:07:30;101912.91;;;14.17;88.26
46690;BME280;32423;45.398;10.874;2022-10-17T01:10:15;101904.34;;;14.10;88.65
46690;BME280;32423;45.398;10.874;2022-10-17T01:13:12;101908.44;;;14.21;88.01
46690;BME280;32423;45.398;10.874;2022-10-17T01:18:54;101906.91;;;14.06;88.40
46690;BME280;32423;45.398;10.874;2022-10-17T01:21:47;101909.34;;;13.94;89.17
46690;BME280;32423;45.398;10.874;2022-10-17T01:33:08;101897.41;;;13.90;88.94
46690;BME280;32423;45.398;10.874;2022-10-17T01:35:59;101904.41;;;13.96;88.82
46690;BME280;32423;45.398;10.874;2022-10-17T01:38:46;101899.59;;;14.02;88.68
46690;BME280;32423;45.398;10.874;2022-10-17T01:44:32;101902.19;;;14.07;88.64
46690;BME280;32423;45.398;10.874;2022-10-17T01:47:21;101903.47;;;14.01;88.81
46690;BME280;32423;45.398;10.874;2022-10-17T01:50:09;101898.81;;;14.01;88.60
46690;BME280;32423;45.398;10.874;2022-10-17T01:52:56;101899.47;;;14.07;87.89
46690;BME280;32423;45.398;10.874;2022-10-17T01:55:44;101888.97;;;14.00;88.22
46690;BME280;32423;45.398;10.874;2022-10-17T01:58:33;101892.13;;;13.94;88.46
46690;BME280;32423;45.398;10.874;2022-10-17T02:01:21;101888.78;;;13.97;88.03
46690;BME280;32423;45.398;10.874;2022-10-17T02:04:05;101887.66;;;13.98;88.05
46690;BME280;32423;45.398;10.874;2022-10-17T02:06:52;101890.38;;;13.98;87.97
46690;BME280;32423;45.398;10.874;2022-10-17T02:09:37;101886.66;;;13.94;87.86
46690;BME280;32423;45.398;10.874;2022-10-17T02:12:27;101886.97;;;13.92;87.90
46690;BME280;32423;45.398;10.874;2022-10-17T02:15:39;101883.88;;;13.71;88.17
46690;BME280;32423;45.398;10.874;2022-10-17T02:21:42;101873.06;;;13.66;88.93
46690;BME280;32423;45.398;10.874;2022-10-17T02:27:34;101879.66;;;13.65;88.56
46690;BME280;32423;45.398;10.874;2022-10-17T02:30:43;101869.84;;;13.64;88.72
46690;BME280;32423;45.398;10.874;2022-10-17T02:33:41;101869.53;;;13.66;88.66
46690;BME280;32423;45.398;10.874;2022-10-17T02:36:28;101874.44;;;13.78;88.25
46690;BME280;32423;45.398;10.874;2022-10-17T02:39:14;101874.66;;;13.81;88.53
46690;BME280;32423;45.398;10.874;2022-10-17T02:42:00;101876.47;;;13.86;88.63
46690;BME280;32423;45.398;10.874;2022-10-17T02:44:45;101878.28;;;13.90;87.91
46690;BME280;32423;45.398;10.874;2022-10-17T02:50:17;101878.75;;;13.92;88.28
46690;BME280;32423;45.398;10.874;2022-10-17T02:53:11;101881.19;;;13.94;88.37
46690;BME280;32423;45.398;10.874;2022-10-17T02:55:59;101882.81;;;13.95;88.17
46690;BME280;32423;45.398;10.874;2022-10-17T02:58:50;101885.44;;;14.00;88.03
46690;BME280;32423;45.398;10.874;2022-10-17T03:01:36;101891.91;;;14.04;87.85
46690;BME280;32423;45.398;10.874;2022-10-17T03:04:21;101898.28;;;13.99;88.15
46690;BME280;32423;45.398;10.874;2022-10-17T03:07:06;101898.59;;;13.98;87.98
46690;BME280;32423;45.398;10.874;2022-10-17T03:09:50;101898.94;;;14.19;87.11
46690;BME280;32423;45.398;10.874;2022-10-17T03:12:35;101894.25;;;14.19;86.49
46690;BME280;32423;45.398;10.874;2022-10-17T03:15:19;101900.44;;;14.25;86.24
46690;BME280;32423;45.398;10.874;2022-10-17T03:18:04;101899.50;;;14.29;85.85
46690;BME280;32423;45.398;10.874;2022-10-17T03:20:48;101894.09;;;14.16;86.22
46690;BME280;32423;45.398;10.874;2022-10-17T03:23:33;101904.41;;;14.19;86.29
46690;BME280;32423;45.398;10.874;2022-10-17T03:26:19;101901.97;;;14.17;86.38
46690;BME280;32423;45.398;10.874;2022-10-17T03:29:04;101908.06;;;14.14;86.68
46690;BME280;32423;45.398;10.874;2022-10-17T03:31:50;101908.69;;;14.11;86.71
46690;BME280;32423;45.398;10.874;2022-10-17T03:34:36;101911.72;;;14.09;87.12
46690;BME280;32423;45.398;10.874;2022-10-17T03:37:21;101920.50;;;14.20;86.54
46690;BME280;32423;45.398;10.874;2022-10-17T03:40:05;101917.84;;;14.29;86.14
46690;BME280;32423;45.398;10.874;2022-10-17T03:42:50;101926.84;;;14.29;86.21
46690;BME280;32423;45.398;10.874;2022-10-17T03:45:34;101921.78;;;14.36;85.79
46690;BME280;32423;45.398;10.874;2022-10-17T03:48:19;101924.06;;;14.43;85.40
46690;BME280;32423;45.398;10.874;2022-10-17T03:51:05;101925.22;;;14.28;86.15
46690;BME280;32423;45.398;10.874;2022-10-17T03:53:52;101919.97;;;14.32;86.20
46690;BME280;32423;45.398;10.874;2022-10-17T03:56:37;101926.16;;;14.37;85.77
46690;BME280;32423;45.398;10.874;2022-10-17T03:59:25;101927.28;;;14.36;85.72
46690;BME280;32423;45.398;10.874;2022-10-17T04:02:20;101936.28;;;14.37;85.45
46690;BME280;32423;45.398;10.874;2022-10-17T04:05:05;101933.00;;;14.35;85.49
46690;BME280;32423;45.398;10.874;2022-10-17T04:07:49;101934.38;;;14.37;85.30
46690;BME280;32423;45.398;10.874;2022-10-17T04:10:37;101935.25;;;14.33;85.30
46690;BME280;32423;45.398;10.874;2022-10-17T04:13:22;101937.22;;;14.19;85.81
46690;BME280;32423;45.398;10.874;2022-10-17T04:16:07;101939.25;;;14.13;86.46
46690;BME280;32423;45.398;10.874;2022-10-17T04:18:57;101942.34;;;14.11;86.70
46690;BME280;32423;45.398;10.874;2022-10-17T04:21:45;101941.31;;;14.07;86.60
46690;BME280;32423;45.398;10.874;2022-10-17T04:24:31;101950.03;;;14.09;86.36
46690;BME280;32423;45.398;10.874;2022-10-17T04:27:27;101950.41;;;14.17;85.80
46690;BME280;32423;45.398;10.874;2022-10-17T04:30:12;101946.88;;;14.16;85.74
46690;BME280;32423;45.398;10.874;2022-10-17T04:32:56;101961.25;;;14.08;86.34
46690;BME280;32423;45.398;10.874;2022-10-17T04:35:41;101962.38;;;14.07;86.49
46690;BME280;32423;45.398;10.874;2022-10-17T04:38:26;101958.97;;;14.01;86.58
46690;BME280;32423;45.398;10.874;2022-10-17T04:41:13;101965.03;;;13.98;87.07
46690;BME280;32423;45.398;10.874;2022-10-17T04:43:57;101967.28;;;13.96;86.89
46690;BME280;32423;45.398;10.874;2022-10-17T04:46:44;101965.34;;;13.97;86.71
46690;BME280;32423;45.398;10.874;2022-10-17T04:49:28;101967.19;;;14.01;86.67
46690;BME280;32423;45.398;10.874;2022-10-17T04:52:18;101982.16;;;14.04;86.28
46690;BME280;32423;45.398;10.874;2022-10-17T04:55:06;101977.31;;;13.87;86.78
46690;BME280;32423;45.398;10.874;2022-10-17T04:57:51;101984.22;;;13.85;87.08
46690;BME280;32423;45.398;10.874;2022-10-17T05:00:38;101979.84;;;13.84;87.28
46690;BME280;32423;45.398;10.874;2022-10-17T05:03:36;101973.78;;;13.73;87.55
46690;BME280;32423;45.398;10.874;2022-10-17T05:06:23;101979.44;;;13.77;87.48
46690;BME280;32423;45.398;10.874;2022-10-17T05:09:32;101987.16;;;13.75;87.42
46690;BME280;32423;45.398;10.874;2022-10-17T05:12:16;101991.31;;;13.72;87.50
46690;BME280;32423;45.398;10.874;2022-10-17T05:15:03;101988.50;;;13.63;87.59
46690;BME280;32423;45.398;10.874;2022-10-17T05:17:52;101989.91;;;13.75;87.30
46690;BME280;32423;45.398;10.874;2022-10-17T05:20:37;101987.34;;;13.78;87.39
46690;BME280;32423;45.398;10.874;2022-10-17T05:23:23;101988.78;;;13.76;87.34
46690;BME280;32423;45.398;10.874;2022-10-17T05:26:08;101987.47;;;13.73;87.13
46690;BME280;32423;45.398;10.874;2022-10-17T05:28:53;101997.91;;;13.71;87.71
46690;BME280;32423;45.398;10.874;2022-10-17T05:31:40;101995.75;;;13.82;87.34
46690;BME280;32423;45.398;10.874;2022-10-17T05:34:25;101997.09;;;13.43;88.66
46690;BME280;32423;45.398;10.874;2022-10-17T05:37:10;102006.00;;;13.49;88.46
46690;BME280;32423;45.398;10.874;2022-10-17T05:39:56;102011.88;;;13.69;88.05
46690;BME280;32423;45.398;10.874;2022-10-17T05:42:46;102007.22;;;13.70;87.13
46690;BME280;32423;45.398;10.874;2022-10-17T05:45:31;102010.94;;;13.88;85.92
46690;BME280;32423;45.398;10.874;2022-10-17T05:48:16;102016.53;;;13.55;87.88
46690;BME280;32423;45.398;10.874;2022-10-17T05:51:02;102021.78;;;13.52;88.76
46690;BME280;32423;45.398;10.874;2022-10-17T05:53:47;102025.31;;;13.52;89.30
46690;BME280;32423;45.398;10.874;2022-10-17T05:56:38;102037.16;;;13.61;89.43
46690;BME280;32423;45.398;10.874;2022-10-17T05:59:24;102050.53;;;13.63;88.97
46690;BME280;32423;45.398;10.874;2022-10-17T06:02:15;102044.06;;;13.73;89.44
46690;BME280;32423;45.398;10.874;2022-10-17T06:05:00;102042.03;;;13.92;87.61
46690;BME280;32423;45.398;10.874;2022-10-17T06:07:45;102052.88;;;14.10;86.53
46690;BME280;32423;45.398;10.874;2022-10-17T06:10:31;102056.78;;;14.18;86.39
46690;BME280;32423;45.398;10.874;2022-10-17T06:13:17;102059.44;;;14.09;87.48
46690;BME280;32423;45.398;10.874;2022-10-17T06:16:06;102064.63;;;14.11;87.49
46690;BME280;32423;45.398;10.874;2022-10-17T06:18:50;102056.41;;;13.97;87.39
46690;BME280;32423;45.398;10.874;2022-10-17T06:21:35;102074.84;;;13.92;87.68
46690;BME280;32423;45.398;10.874;2022-10-17T06:24:35;102068.97;;;13.85;87.35
46690;BME280;32423;45.398;10.874;2022-10-17T06:27:21;102071.81;;;13.93;86.86
46690;BME280;32423;45.398;10.874;2022-10-17T06:30:06;102077.16;;;14.26;85.55
46690;BME280;32423;45.398;10.874;2022-10-17T06:32:51;102076.56;;;14.65;83.88
46690;BME280;32423;45.398;10.874;2022-10-17T06:35:36;102084.47;;;15.02;81.69
46690;BME280;32423;45.398;10.874;2022-10-17T06:38:20;102092.59;;;15.16;80.14
46690;BME280;32423;45.398;10.874;2022-10-17T06:41:09;102095.91;;;15.04;81.55
46690;BME280;32423;45.398;10.874;2022-10-17T06:43:56;102101.00;;;15.41;80.08
46690;BME280;32423;45.398;10.874;2022-10-17T06:47:08;102100.63;;;15.96;77.56
46690;BME280;32423;45.398;10.874;2022-10-17T06:49:54;102091.03;;;16.33;75.55
46690;BME280;32423;45.398;10.874;2022-10-17T06:52:49;102096.34;;;16.21;75.97
46690;BME280;32423;45.398;10.874;2022-10-17T06:55:53;102105.94;;;16.58;75.04
46690;BME280;32423;45.398;10.874;2022-10-17T06:58:57;102103.56;;;16.65;74.39
46690;BME280;32423;45.398;10.874;2022-10-17T07:01:52;102111.66;;;16.05;78.52
46690;BME280;32423;45.398;10.874;2022-10-17T07:04:36;102117.44;;;16.03;78.47
46690;BME280;32423;45.398;10.874;2022-10-17T07:07:21;102125.28;;;15.57;80.33
46690;BME280;32423;45.398;10.874;2022-10-17T07:10:05;102127.72;;;15.58;81.07
46690;BME280;32423;45.398;10.874;2022-10-17T07:12:54;102121.66;;;15.48;81.73
46690;BME280;32423;45.398;10.874;2022-10-17T07:15:38;102128.72;;;15.40;83.00
46690;BME280;32423;45.398;10.874;2022-10-17T07:18:23;102129.53;;;15.63;81.88
46690;BME280;32423;45.398;10.874;2022-10-17T07:21:08;102134.38;;;15.66;81.77
46690;BME280;32423;45.398;10.874;2022-10-17T07:23:53;102125.81;;;15.98;80.09
46690;BME280;32423;45.398;10.874;2022-10-17T07:26:38;102133.91;;;16.03;80.20
46690;BME280;32423;45.398;10.874;2022-10-17T07:29:25;102126.09;;;15.88;81.39
46690;BME280;32423;45.398;10.874;2022-10-17T07:32:27;102131.53;;;16.19;80.01
46690;BME280;32423;45.398;10.874;2022-10-17T07:35:11;102129.72;;;16.71;78.06
46690;BME280;32423;45.398;10.874;2022-10-17T07:37:58;102125.53;;;17.08;75.71
46690;BME280;32423;45.398;10.874;2022-10-17T07:40:44;102130.34;;;17.37;74.63
46690;BME280;32423;45.398;10.874;2022-10-17T07:43:29;102135.22;;;17.31;75.35
46690;BME280;32423;45.398;10.874;2022-10-17T07:46:15;102131.59;;;17.57;74.39
46690;BME280;32423;45.398;10.874;2022-10-17T07:49:01;102130.09;;;18.14;70.79
46690;BME280;32423;45.398;10.874;2022-10-17T07:51:46;102125.13;;;18.08;71.74
46690;BME280;32423;45.398;10.874;2022-10-17T07:54:31;102124.34;;;17.99;72.72
46690;BME280;32423;45.398;10.874;2022-10-17T07:57:15;102126.16;;;17.94;72.68
46690;BME280;32423;45.398;10.874;2022-10-17T07:59:59;102127.28;;;17.93;72.86
46690;BME280;32423;45.398;10.874;2022-10-17T08:02:44;102131.00;;;17.98;73.60
46690;BME280;32423;45.398;10.874;2022-10-17T08:05:28;102135.59;;;18.14;73.59
46690;BME280;32423;45.398;10.874;2022-10-17T08:08:13;102125.59;;;18.10;73.97
46690;BME280;32423;45.398;10.874;2022-10-17T08:11:05;102124.81;;;18.30;73.99
46690;BME280;32423;45.398;10.874;2022-10-17T08:13:50;102134.91;;;18.55;73.14
46690;BME280;32423;45.398;10.874;2022-10-17T08:16:35;102129.09;;;18.48;72.20
46690;BME280;32423;45.398;10.874;2022-10-17T08:19:19;102136.81;;;18.63;72.02
46690;BME280;32423;45.398;10.874;2022-10-17T08:22:03;102137.75;;;18.67;71.86
46690;BME280;32423;45.398;10.874;2022-10-17T08:24:48;102134.06;;;18.63;72.94
46690;BME280;32423;45.398;10.874;2022-10-17T08:27:32;102138.97;;;18.49;73.77
46690;BME280;32423;45.398;10.874;2022-10-17T08:30:17;102140.97;;;18.69;74.08
46690;BME280;32423;45.398;10.874;2022-10-17T08:33:02;102148.38;;;18.77;73.60
46690;BME280;32423;45.398;10.874;2022-10-17T08:35:46;102139.38;;;18.89;73.59
46690;BME280;32423;45.398;10.874;2022-10-17T08:38:31;102143.41;;;18.92;74.09
46690;BME280;32423;45.398;10.874;2022-10-17T08:47:02;102146.34;;;19.40;73.05
46690;BME280;32423;45.398;10.874;2022-10-17T08:49:55;102142.94;;;19.43;72.71
46690;BME280;32423;45.398;10.874;2022-10-17T08:52:46;102139.28;;;19.51;72.33
46690;BME280;32423;45.398;10.874;2022-10-17T08:55:34;102151.50;;;19.50;73.84
46690;BME280;32423;45.398;10.874;2022-10-17T09:06:56;102139.00;;;20.74;69.43
46690;BME280;32423;45.398;10.874;2022-10-17T09:18:40;102139.28;;;20.97;68.69
46690;BME280;32423;45.398;10.874;2022-10-17T09:27:22;102150.66;;;20.56;70.22
46690;BME280;32423;45.398;10.874;2022-10-17T09:33:11;102139.31;;;20.73;69.16
46690;BME280;32423;45.398;10.874;2022-10-17T09:35:56;102149.63;;;21.00;68.08
46690;BME280;32423;45.398;10.874;2022-10-17T09:38:44;102141.34;;;20.88;68.69
46690;BME280;32423;45.398;10.874;2022-10-17T09:41:42;102143.50;;;21.34;67.53
46690;BME280;32423;45.398;10.874;2022-10-17T09:44:36;102151.53;;;20.84;68.07
46690;BME280;32423;45.398;10.874;2022-10-17T09:47:28;102145.34;;;21.15;66.94
46690;BME280;32423;45.398;10.874;2022-10-17T09:50:19;102152.88;;;21.02;66.59
46690;BME280;32423;45.398;10.874;2022-10-17T09:53:08;102144.19;;;21.16;66.71
46690;BME280;32423;45.398;10.874;2022-10-17T09:55:55;102146.41;;;21.38;65.09
46690;BME280;32423;45.398;10.874;2022-10-17T09:58:42;102146.03;;;21.40;65.25
46690;BME280;32423;45.398;10.874;2022-10-17T10:01:28;102152.22;;;21.64;64.81
46690;BME280;32423;45.398;10.874;2022-10-17T10:04:14;102147.41;;;21.61;65.01
46690;BME280;32423;45.398;10.874;2022-10-17T10:07:00;102147.13;;;21.51;64.70
46690;BME280;32423;45.398;10.874;2022-10-17T10:09:45;102142.16;;;21.72;63.30
46690;BME280;32423;45.398;10.874;2022-10-17T10:12:32;102142.56;;;22.52;60.32
46690;BME280;32423;45.398;10.874;2022-10-17T10:21:09;102148.38;;;22.47;60.33
46690;BME280;32423;45.398;10.874;2022-10-17T10:26:48;102149.50;;;22.11;60.95
46690;BME280;32423;45.398;10.874;2022-10-17T10:29:34;102138.97;;;22.01;61.68
46690;BME280;32423;45.398;10.874;2022-10-17T10:32:24;102146.19;;;22.72;60.37
46690;BME280;32423;45.398;10.874;2022-10-17T10:35:20;102145.16;;;23.57;56.87
46690;BME280;32423;45.398;10.874;2022-10-17T10:38:13;102141.31;;;23.23;57.22
46690;BME280;32423;45.398;10.874;2022-10-17T10:41:03;102129.38;;;22.65;58.84
46690;BME280;32423;45.398;10.874;2022-10-17T10:43:48;102138.09;;;24.09;54.58
46690;BME280;32423;45.398;10.874;2022-10-17T10:46:34;102138.31;;;23.97;55.36
46690;BME280;32423;45.398;10.874;2022-10-17T10:49:29;102144.72;;;24.01;55.45
46690;BME280;32423;45.398;10.874;2022-10-17T10:52:19;102141.91;;;23.74;55.17
46690;BME280;32423;45.398;10.874;2022-10-17T11:04:27;102134.53;;;23.21;56.89
46690;BME280;32423;45.398;10.874;2022-10-17T11:07:15;102134.16;;;23.41;56.18
46690;BME280;32423;45.398;10.874;2022-10-17T11:13:10;102126.34;;;24.71;52.27
46690;BME280;32423;45.398;10.874;2022-10-17T11:15:59;102125.69;;;25.11;51.32
46690;BME280;32423;45.398;10.874;2022-10-17T11:18:49;102131.75;;;24.08;52.50
46690;BME280;32423;45.398;10.874;2022-10-17T11:24:26;102123.88;;;24.37;52.04
46690;BME280;32423;45.398;10.874;2022-10-17T11:27:13;102117.13;;;24.11;52.87
46690;BME280;32423;45.398;10.874;2022-10-17T11:29:58;102117.56;;;23.91;53.43
46690;BME280;32423;45.398;10.874;2022-10-17T11:32:44;102115.78;;;24.28;52.67
46690;BME280;32423;45.398;10.874;2022-10-17T11:35:39;102113.88;;;24.32;51.72
46690;BME280;32423;45.398;10.874;2022-10-17T11:41:32;102107.53;;;25.62;48.88
46690;BME280;32423;45.398;10.874;2022-10-17T11:47:05;102105.09;;;26.66;46.30
46690;BME280;32423;45.398;10.874;2022-10-17T11:49:51;102100.06;;;27.03;45.21
46690;BME280;32423;45.398;10.874;2022-10-17T11:52:40;102097.28;;;25.76;47.42
46690;BME280;32423;45.398;10.874;2022-10-17T11:55:30;102089.94;;;26.02;46.83
46690;BME280;32423;45.398;10.874;2022-10-17T12:01:03;102094.69;;;26.56;46.08
46690;BME280;32423;45.398;10.874;2022-10-17T12:03:57;102092.41;;;28.88;40.97
46690;BME280;32423;45.398;10.874;2022-10-17T12:12:27;102114.91;;;36.07;27.54
46690;BME280;32423;45.398;10.874;2022-10-17T12:18:00;102097.03;;;33.00;31.61
46690;BME280;32423;45.398;10.874;2022-10-17T12:20:55;102091.09;;;30.54;34.79
46690;BME280;32423;45.398;10.874;2022-10-17T12:23:42;102088.88;;;31.30;33.35
46690;BME280;32423;45.398;10.874;2022-10-17T12:26:34;102090.22;;;31.95;33.24
46690;BME280;32423;45.398;10.874;2022-10-17T12:29:24;102095.78;;;33.01;31.17
46690;BME280;32423;45.398;10.874;2022-10-17T12:32:13;102092.16;;;31.25;33.12
46690;BME280;32423;45.398;10.874;2022-10-17T12:34:58;102083.38;;;32.79;30.09
46690;BME280;32423;45.398;10.874;2022-10-17T12:46:12;102078.84;;;30.72;34.11
46690;BME280;32423;45.398;10.874;2022-10-17T12:55:18;102070.88;;;31.97;31.73
46690;BME280;32423;45.398;10.874;2022-10-17T12:58:05;102071.72;;;31.48;33.11
46690;BME280;32423;45.398;10.874;2022-10-17T13:00:56;102067.50;;;32.06;31.71
46690;BME280;32423;45.398;10.874;2022-10-17T13:03:42;102065.41;;;31.67;32.71
46690;BME280;32423;45.398;10.874;2022-10-17T13:06:29;102056.66;;;31.34;32.61
46690;BME280;32423;45.398;10.874;2022-10-17T13:12:12;102052.88;;;31.71;32.30
46690;BME280;32423;45.398;10.874;2022-10-17T13:14:58;102058.63;;;32.07;31.97
46690;BME280;32423;45.398;10.874;2022-10-17T13:17:42;102055.13;;;34.28;28.29
46690;BME280;32423;45.398;10.874;2022-10-17T13:20:28;102053.44;;;32.06;31.83
46690;BME280;32423;45.398;10.874;2022-10-17T13:23:20;102041.06;;;31.07;32.87
46690;BME280;32423;45.398;10.874;2022-10-17T13:26:06;102050.69;;;31.32;32.73
46690;BME280;32423;45.398;10.874;2022-10-17T13:29:10;102045.09;;;34.11;27.45
46690;BME280;32423;45.398;10.874;2022-10-17T13:31:56;102044.53;;;32.50;30.40
46690;BME280;32423;45.398;10.874;2022-10-17T13:34:44;102045.47;;;31.58;31.43
46690;BME280;32423;45.398;10.874;2022-10-17T13:37:28;102044.91;;;34.18;28.09
46690;BME280;32423;45.398;10.874;2022-10-17T13:40:14;102040.47;;;32.51;30.20
46690;BME280;32423;45.398;10.874;2022-10-17T13:42:59;102046.16;;;30.54;33.94
46690;BME280;32423;45.398;10.874;2022-10-17T13:45:47;102046.03;;;34.49;28.03
46690;BME280;32423;45.398;10.874;2022-10-17T13:48:34;102040.84;;;33.74;28.45
46690;BME280;32423;45.398;10.874;2022-10-17T13:51:19;102045.66;;;35.01;26.72
46690;BME280;32423;45.398;10.874;2022-10-17T13:54:16;102039.84;;;32.44;29.88
46690;BME280;32423;45.398;10.874;2022-10-17T13:57:02;102032.94;;;35.56;26.38
46690;BME280;32423;45.398;10.874;2022-10-17T13:59:48;102038.44;;;34.33;27.49
46690;BME280;32423;45.398;10.874;2022-10-17T14:02:33;102039.44;;;33.33;28.73
46690;BME280;32423;45.398;10.874;2022-10-17T14:05:18;102037.84;;;35.43;25.54
46690;BME280;32423;45.398;10.874;2022-10-17T14:08:03;102033.84;;;31.06;31.55
46690;BME280;32423;45.398;10.874;2022-10-17T14:10:48;102036.88;;;35.25;25.89
46690;BME280;32423;45.398;10.874;2022-10-17T14:13:32;102029.44;;;33.93;27.87
46690;BME280;32423;45.398;10.874;2022-10-17T14:16:18;102028.25;;;34.78;26.74
46690;BME280;32423;45.398;10.874;2022-10-17T14:19:04;102018.09;;;32.05;29.85
46690;BME280;32423;45.398;10.874;2022-10-17T14:21:52;102024.88;;;30.57;31.99
46690;BME280;32423;45.398;10.874;2022-10-17T14:24:37;102018.41;;;31.17;31.53
46690;BME280;32423;45.398;10.874;2022-10-17T14:33:14;102015.66;;;33.34;28.30
46690;BME280;32423;45.398;10.874;2022-10-17T14:36:02;102016.94;;;29.73;32.87
46690;BME280;32423;45.398;10.874;2022-10-17T14:38:51;102017.03;;;30.98;31.47
46690;BME280;32423;45.398;10.874;2022-10-17T14:41:36;102022.47;;;30.55;32.07
46690;BME280;32423;45.398;10.874;2022-10-17T14:44:26;102022.41;;;30.89;31.90
46690;BME280;32423;45.398;10.874;2022-10-17T14:47:14;102023.63;;;30.24;32.75
46690;BME280;32423;45.398;10.874;2022-10-17T14:50:19;102020.59;;;29.19;34.54
46690;BME280;32423;45.398;10.874;2022-10-17T14:55:56;102020.06;;;28.79;35.05
46690;BME280;32423;45.398;10.874;2022-10-17T14:58:41;102024.22;;;28.32;36.61
46690;BME280;32423;45.398;10.874;2022-10-17T15:01:25;102008.94;;;28.58;35.57
46690;BME280;32423;45.398;10.874;2022-10-17T15:04:10;102017.94;;;28.98;34.67
46690;BME280;32423;45.398;10.874;2022-10-17T15:06:54;102011.06;;;29.09;34.73
46690;BME280;32423;45.398;10.874;2022-10-17T15:09:39;102015.44;;;28.27;35.31
46690;BME280;32423;45.398;10.874;2022-10-17T15:12:24;102012.34;;;27.86;35.80
46690;BME280;32423;45.398;10.874;2022-10-17T15:15:08;102010.34;;;27.76;36.69
46690;BME280;32423;45.398;10.874;2022-10-17T15:17:53;102023.94;;;27.70;36.79
46690;BME280;32423;45.398;10.874;2022-10-17T15:20:38;102013.94;;;27.34;37.99
46690;BME280;32423;45.398;10.874;2022-10-17T15:23:23;102006.97;;;26.53;39.28
46690;BME280;32423;45.398;10.874;2022-10-17T15:26:12;102002.59;;;26.63;39.87
46690;BME280;32423;45.398;10.874;2022-10-17T15:28:57;101990.97;;;26.43;40.50
46690;BME280;32423;45.398;10.874;2022-10-17T15:31:41;102001.84;;;25.90;41.30
46690;BME280;32423;45.398;10.874;2022-10-17T15:34:26;102001.78;;;25.79;42.28
46690;BME280;32423;45.398;10.874;2022-10-17T15:37:15;101996.91;;;25.22;43.50
46690;BME280;32423;45.398;10.874;2022-10-17T15:40:00;101997.34;;;24.87;43.51
46690;BME280;32423;45.398;10.874;2022-10-17T15:42:45;101998.56;;;24.56;44.16
46690;BME280;32423;45.398;10.874;2022-10-17T15:45:29;101996.66;;;24.04;45.59
46690;BME280;32423;45.398;10.874;2022-10-17T15:48:18;101998.50;;;23.93;46.17
46690;BME280;32423;45.398;10.874;2022-10-17T15:51:07;102000.06;;;23.41;47.49
46690;BME280;32423;45.398;10.874;2022-10-17T15:53:52;101996.53;;;22.98;48.92
46690;BME280;32423;45.398;10.874;2022-10-17T15:56:40;102007.06;;;22.70;50.22
46690;BME280;32423;45.398;10.874;2022-10-17T15:59:28;102001.22;;;22.37;51.56
46690;BME280;32423;45.398;10.874;2022-10-17T16:02:14;102000.19;;;22.26;51.80
46690;BME280;32423;45.398;10.874;2022-10-17T16:04:59;102003.66;;;22.03;52.69
46690;BME280;32423;45.398;10.874;2022-10-17T16:07:43;102002.34;;;21.82;53.21
46690;BME280;32423;45.398;10.874;2022-10-17T16:10:30;101999.41;;;21.59;54.34
46690;BME280;32423;45.398;10.874;2022-10-17T16:13:16;102002.28;;;21.47;54.95
46690;BME280;32423;45.398;10.874;2022-10-17T16:16:00;102005.88;;;21.31;55.77
46690;BME280;32423;45.398;10.874;2022-10-17T16:18:45;102011.06;;;21.33;55.84
46690;BME280;32423;45.398;10.874;2022-10-17T16:21:30;102001.00;;;20.97;57.39
46690;BME280;32423;45.398;10.874;2022-10-17T16:24:16;102006.84;;;20.80;58.41
46690;BME280;32423;45.398;10.874;2022-10-17T16:27:01;102014.78;;;20.54;59.23
46690;BME280;32423;45.398;10.874;2022-10-17T16:29:45;102006.28;;;20.46;59.91